createdAt,value
2023-01-28T00:02:26.879Z,11.57
2023-01-28T00:05:30.071Z,11.37
2023-01-28T00:08:33.762Z,9.82
2023-01-28T00:11:36.429Z,12.50
2023-01-28T00:14:38.564Z,11.50
2023-01-28T00:17:41.014Z,9.57
2023-01-28T00:20:43.148Z,12.18
2023-01-28T00:23:53.062Z,10.75
2023-01-28T00:26:55.202Z,10.35
2023-01-28T00:29:57.673Z,11.23
2023-01-28T00:32:59.819Z,10.85
2023-01-28T00:36:03.615Z,9.77
2023-01-28T00:39:06.432Z,11.45
2023-01-28T00:42:09.931Z,9.20
2023-01-28T00:45:12.640Z,10.23
2023-01-28T00:48:15.407Z,11.05
2023-01-28T00:51:20.083Z,9.68
2023-01-28T00:54:24.372Z,8.90
2023-01-28T00:57:26.678Z,10.75
2023-01-28T01:00:29.189Z,11.03
2023-01-28T01:03:31.385Z,10.73
2023-01-28T01:06:36.459Z,11.35
2023-01-28T01:09:38.625Z,10.10
2023-01-28T01:12:41.110Z,10.63
2023-01-28T01:15:43.390Z,9.00
2023-01-28T01:18:45.933Z,10.63
2023-01-28T01:21:50.640Z,10.50
2023-01-28T01:24:53.320Z,10.70
2023-01-28T01:27:56.661Z,8.82
2023-01-28T01:31:02.733Z,12.48
2023-01-28T01:34:05.117Z,11.52
2023-01-28T01:37:10.364Z,11.80
2023-01-28T01:40:13.004Z,9.63
2023-01-28T01:43:20.920Z,11.93
2023-01-28T01:46:38.322Z,10.95
2023-01-28T01:49:41.265Z,10.50
2023-01-28T01:52:44.283Z,9.13
2023-01-28T01:55:50.048Z,11.10
2023-01-28T01:58:54.696Z,10.00
2023-01-28T02:02:01.381Z,9.98
2023-01-28T02:05:07.182Z,11.50
2023-01-28T02:08:22.004Z,10.02
2023-01-28T02:11:30.410Z,10.30
2023-01-28T02:14:36.469Z,9.65
2023-01-28T02:17:39.541Z,11.50
2023-01-28T02:21:06.681Z,9.03
2023-01-28T02:24:34.056Z,11.73
2023-01-28T02:27:54.996Z,9.73
2023-01-28T02:31:17.527Z,10.60
2023-01-28T02:34:29.545Z,10.73
2023-01-28T02:37:40.891Z,9.40
2023-01-28T02:41:05.076Z,11.18
2023-01-28T02:44:07.630Z,11.00
2023-01-28T02:47:33.207Z,12.73
2023-01-28T02:50:51.590Z,12.88
2023-01-28T02:54:03.861Z,11.95
2023-01-28T02:57:30.240Z,12.77
2023-01-28T03:00:37.817Z,13.13
2023-01-28T03:04:03.532Z,11.57
2023-01-28T03:07:09.721Z,11.50
2023-01-28T03:10:17.053Z,13.80
2023-01-28T03:13:38.303Z,12.80
2023-01-28T03:17:00.935Z,12.70
2023-01-28T03:20:22.418Z,13.13
2023-01-28T03:23:52.347Z,12.07
2023-01-28T03:27:23.350Z,13.38
2023-01-28T03:30:57.080Z,14.07
2023-01-28T03:34:21.744Z,13.18
2023-01-28T03:40:27.919Z,12.45
2023-01-28T03:43:31.864Z,12.15
2023-01-28T03:49:41.067Z,11.32
2023-01-28T03:52:43.306Z,11.75
2023-01-28T03:55:49.229Z,12.27
2023-01-28T03:58:56.614Z,12.27
2023-01-28T04:01:59.956Z,14.30
2023-01-28T04:05:06.997Z,12.07
2023-01-28T04:08:11.912Z,13.80
2023-01-28T04:11:19.829Z,11.88
2023-01-28T04:14:22.775Z,12.13
2023-01-28T04:17:25.419Z,15.20
2023-01-28T04:20:27.656Z,13.27
2023-01-28T04:23:30.699Z,12.45
2023-01-28T04:26:33.305Z,14.45
2023-01-28T04:29:36.105Z,11.07
2023-01-28T04:32:41.242Z,14.60
2023-01-28T04:35:43.772Z,15.88
2023-01-28T04:38:46.049Z,14.82
2023-01-28T04:41:49.316Z,14.73
2023-01-28T04:44:52.263Z,14.07
2023-01-28T04:47:55.293Z,14.32
2023-01-28T04:50:57.992Z,17.00
2023-01-28T04:57:04.118Z,13.90
2023-01-28T05:00:07.234Z,14.23
2023-01-28T05:03:09.522Z,16.25
2023-01-28T05:06:12.263Z,16.12
2023-01-28T05:09:14.701Z,15.15
2023-01-28T05:12:17.140Z,15.93
2023-01-28T05:15:20.610Z,16.05
2023-01-28T05:18:23.459Z,16.15
2023-01-28T05:21:26.820Z,17.15
2023-01-28T05:24:29.409Z,17.10
2023-01-28T05:27:32.702Z,15.75
2023-01-28T05:33:37.431Z,16.10
2023-01-28T05:36:41.269Z,14.70
2023-01-28T05:39:44.938Z,14.60
2023-01-28T05:42:47.513Z,18.27
2023-01-28T05:45:50.964Z,15.98
2023-01-28T05:48:53.798Z,16.13
2023-01-28T05:51:58.901Z,14.80
2023-01-28T05:55:01.834Z,15.77
2023-01-28T05:58:04.094Z,13.48
2023-01-28T06:01:07.120Z,15.77
2023-01-28T06:07:15.611Z,13.07
2023-01-28T06:10:19.729Z,14.87
2023-01-28T06:13:22.111Z,16.05
2023-01-28T06:16:26.470Z,17.17
2023-01-28T06:19:29.188Z,16.23
2023-01-28T06:22:31.684Z,16.67
2023-01-28T06:25:33.881Z,15.95
2023-01-28T06:28:37.624Z,17.30
2023-01-28T06:31:39.731Z,15.20
2023-01-28T06:34:42.529Z,15.73
2023-01-28T06:37:45.510Z,17.37
2023-01-28T06:40:52.173Z,15.05
2023-01-28T06:43:54.363Z,15.10
2023-01-28T06:46:56.786Z,16.73
2023-01-28T06:49:58.916Z,17.77
2023-01-28T06:53:01.389Z,14.73
2023-01-28T06:56:03.964Z,15.68
2023-01-28T06:59:06.535Z,14.02
2023-01-28T07:02:11.464Z,17.00
2023-01-28T07:05:14.075Z,13.40
2023-01-28T07:08:16.304Z,13.95
2023-01-28T07:11:18.883Z,14.77
2023-01-28T07:14:21.334Z,15.57
2023-01-28T07:17:23.985Z,17.30
2023-01-28T07:20:26.383Z,13.75
2023-01-28T07:23:29.194Z,15.03
2023-01-28T07:26:32.260Z,14.55
2023-01-28T07:29:34.732Z,16.80
2023-01-28T07:32:36.916Z,13.52
2023-01-28T07:35:39.356Z,16.55
2023-01-28T07:38:41.555Z,16.20
2023-01-28T07:41:44.012Z,14.55
2023-01-28T07:44:46.335Z,14.13
2023-01-28T07:47:59.746Z,15.00
2023-01-28T07:51:02.136Z,14.48
2023-01-28T07:54:04.647Z,16.23
2023-01-28T07:57:09.948Z,16.12
2023-01-28T08:00:13.370Z,15.43
2023-01-28T08:03:16.129Z,14.40
2023-01-28T08:06:18.268Z,12.35
2023-01-28T08:09:20.724Z,15.32
2023-01-28T08:12:23.044Z,15.85
2023-01-28T08:15:25.889Z,14.33
2023-01-28T08:18:28.444Z,14.48
2023-01-28T08:21:30.962Z,17.27
2023-01-28T08:24:33.091Z,14.10
2023-01-28T08:27:35.530Z,14.95
2023-01-28T08:30:38.904Z,15.25
2023-01-28T08:33:41.496Z,15.50
2023-01-28T08:36:43.657Z,12.00
2023-01-28T08:39:46.699Z,13.00
2023-01-28T08:42:53.243Z,12.48
2023-01-28T08:45:55.751Z,12.82
2023-01-28T08:48:57.984Z,12.63
2023-01-28T08:52:00.468Z,11.88
2023-01-28T08:55:03.385Z,13.55
2023-01-28T08:58:07.505Z,11.52
2023-01-28T09:01:09.645Z,12.27
2023-01-28T09:04:12.077Z,11.73
2023-01-28T09:07:14.211Z,10.75
2023-01-28T09:10:17.506Z,14.02
2023-01-28T09:13:19.962Z,10.13
2023-01-28T09:16:22.771Z,12.57
2023-01-28T09:19:25.143Z,10.57
2023-01-28T09:22:27.647Z,11.15
2023-01-28T09:25:30.289Z,11.23
2023-01-28T09:28:33.570Z,10.52
2023-01-28T09:31:35.863Z,12.43
2023-01-28T09:34:39.303Z,11.15
2023-01-28T09:37:41.470Z,10.50
2023-01-28T09:40:45.015Z,11.35
2023-01-28T09:44:19.199Z,12.00
2023-01-28T09:47:39.961Z,12.55
2023-01-28T09:50:45.844Z,10.93
2023-01-28T09:53:54.865Z,10.43
2023-01-28T09:57:07.096Z,12.60
2023-01-28T10:00:15.745Z,11.82
2023-01-28T10:03:44.457Z,11.95
2023-01-28T10:07:02.043Z,12.32
2023-01-28T10:10:19.900Z,12.82
2023-01-28T10:13:56.284Z,11.55
2023-01-28T10:17:05.302Z,12.60
2023-01-28T10:20:14.315Z,13.05
2023-01-28T10:23:31.916Z,11.88
2023-01-28T10:26:38.497Z,11.75
2023-01-28T10:29:43.995Z,12.82
2023-01-28T10:32:53.691Z,11.35
2023-01-28T10:35:56.633Z,12.48
2023-01-28T10:38:58.999Z,11.00
2023-01-28T10:42:01.460Z,12.13
2023-01-28T10:45:18.007Z,9.80
2023-01-28T10:48:24.790Z,10.40
2023-01-28T10:51:45.022Z,11.90
2023-01-28T10:54:47.456Z,11.25
2023-01-28T10:57:50.035Z,12.98
2023-01-28T11:00:55.056Z,11.90
2023-01-28T11:03:58.722Z,12.48
2023-01-28T11:07:05.583Z,13.30
2023-01-28T11:10:32.185Z,10.52
2023-01-28T11:13:34.752Z,11.70
2023-01-28T11:16:40.161Z,11.75
2023-01-28T11:19:42.775Z,11.90
2023-01-28T11:22:45.561Z,11.93
2023-01-28T11:25:48.043Z,11.95
2023-01-28T11:28:51.059Z,10.30
2023-01-28T11:31:54.561Z,11.15
2023-01-28T11:34:57.718Z,12.10
2023-01-28T11:38:01.045Z,11.68
2023-01-28T11:41:03.308Z,12.95
2023-01-28T11:44:19.460Z,10.77
2023-01-28T11:47:42.978Z,13.00
2023-01-28T11:51:02.542Z,9.02
2023-01-28T11:54:27.901Z,9.98
2023-01-28T11:57:49.666Z,11.12
2023-01-28T12:01:05.823Z,10.65
2023-01-28T12:04:20.940Z,9.50
2023-01-28T12:07:46.948Z,9.45
2023-01-28T12:11:47.103Z,10.15
2023-01-28T12:15:31.184Z,8.85
2023-01-28T12:18:46.210Z,11.12
2023-01-28T12:21:57.475Z,11.35
2023-01-28T12:25:21.278Z,10.65
2023-01-28T12:28:44.676Z,9.20
2023-01-28T12:31:56.081Z,10.30
2023-01-28T12:34:58.204Z,9.82
2023-01-28T12:38:17.076Z,9.57
2023-01-28T12:41:24.608Z,13.00
2023-01-28T12:44:33.239Z,9.60
2023-01-28T12:47:39.329Z,10.15
2023-01-28T12:50:48.695Z,7.70
2023-01-28T12:54:19.086Z,10.85
2023-01-28T12:57:30.808Z,10.80
2023-01-28T13:00:36.634Z,8.55
2023-01-28T13:03:48.451Z,8.15
2023-01-28T13:07:19.827Z,9.70
2023-01-28T13:10:25.681Z,9.32
2023-01-28T13:13:42.216Z,8.38
2023-01-28T13:16:44.903Z,7.70
2023-01-28T13:19:47.187Z,8.85
2023-01-28T13:23:01.505Z,8.23
2023-01-28T13:26:18.649Z,11.07
2023-01-28T13:29:24.133Z,8.35
2023-01-28T13:32:32.489Z,7.65
2023-01-28T13:35:40.644Z,9.90
2023-01-28T13:38:43.847Z,8.20
2023-01-28T13:41:51.497Z,9.25
2023-01-28T13:44:54.250Z,9.20
2023-01-28T13:48:21.644Z,8.45
2023-01-28T13:51:35.373Z,8.40
2023-01-28T13:58:06.508Z,11.00
2023-01-28T14:01:24.437Z,8.65
2023-01-28T14:04:48.272Z,8.55
2023-01-28T14:08:21.635Z,6.60
2023-01-28T14:12:12.524Z,8.77
2023-01-28T14:15:33.528Z,8.95
2023-01-28T14:18:40.894Z,9.88
2023-01-28T14:21:43.087Z,10.23
2023-01-28T14:24:46.465Z,9.27
2023-01-28T14:27:54.197Z,9.35
2023-01-28T14:31:06.295Z,12.82
2023-01-28T14:34:22.059Z,12.40
2023-01-28T14:37:29.139Z,11.52
2023-01-28T14:40:39.073Z,15.38
2023-01-28T14:43:41.894Z,13.95
2023-01-28T14:46:57.112Z,11.60
2023-01-28T14:50:23.232Z,13.52
2023-01-28T14:53:51.784Z,12.90
2023-01-28T14:57:22.321Z,12.45
2023-01-28T15:00:27.747Z,12.23
2023-01-28T15:03:30.849Z,12.05
2023-01-28T15:06:36.393Z,13.98
2023-01-28T15:09:38.888Z,13.70
2023-01-28T15:12:44.653Z,12.82
2023-01-28T15:15:49.835Z,13.70
2023-01-28T15:18:52.353Z,13.20
2023-01-28T15:21:56.987Z,14.10
2023-01-28T15:24:59.191Z,13.77
2023-01-28T15:28:02.197Z,13.70
2023-01-28T15:31:04.531Z,11.50
2023-01-28T15:34:18.714Z,12.63
2023-01-28T15:40:26.174Z,12.13
2023-01-28T15:43:31.601Z,11.40
2023-01-28T15:46:34.156Z,11.90
2023-01-28T15:49:42.050Z,12.93
2023-01-28T15:52:46.871Z,11.57
2023-01-28T15:55:49.040Z,12.23
2023-01-28T15:58:51.523Z,12.65
2023-01-28T16:02:17.521Z,13.88
2023-01-28T16:05:29.150Z,12.85
2023-01-28T16:08:40.356Z,12.77
2023-01-28T16:11:44.942Z,13.85
2023-01-28T16:14:54.429Z,13.40
2023-01-28T16:17:57.289Z,12.32
2023-01-28T16:20:59.946Z,14.45
2023-01-28T16:24:06.649Z,12.93
2023-01-28T16:27:27.034Z,12.35
2023-01-28T16:30:30.237Z,14.13
2023-01-28T16:33:32.434Z,13.68
2023-01-28T16:36:35.135Z,14.77
2023-01-28T16:39:37.245Z,16.05
2023-01-28T16:42:39.979Z,14.45
2023-01-28T16:45:43.098Z,13.13
2023-01-28T16:48:45.520Z,13.43
2023-01-28T16:51:47.729Z,13.52
2023-01-28T16:54:52.528Z,14.68
2023-01-28T16:57:57.115Z,12.73
2023-01-28T17:00:59.658Z,13.25
2023-01-28T17:04:03.847Z,13.93
2023-01-28T17:07:06.952Z,13.23
2023-01-28T17:10:10.476Z,12.60
2023-01-28T17:13:12.961Z,14.10
2023-01-28T17:16:15.141Z,14.38
2023-01-28T17:19:18.651Z,13.50
2023-01-28T17:22:20.794Z,12.85
2023-01-28T17:25:23.222Z,12.73
2023-01-28T17:28:25.443Z,13.65
2023-01-28T17:31:28.353Z,13.85
2023-01-28T17:34:31.339Z,12.27
2023-01-28T17:37:33.857Z,13.60
2023-01-28T17:40:36.036Z,12.18
2023-01-28T17:43:38.815Z,11.60
2023-01-28T17:46:41.453Z,12.77
2023-01-28T17:49:43.943Z,11.35
2023-01-28T17:52:46.171Z,12.02
2023-01-28T17:55:48.598Z,12.07
2023-01-28T17:58:56.252Z,13.25
2023-01-28T18:01:58.769Z,13.00
2023-01-28T18:05:01.339Z,12.33
2023-01-28T18:08:03.928Z,13.95
2023-01-28T18:11:08.947Z,12.93
2023-01-28T18:14:11.323Z,14.30
2023-01-28T18:17:13.827Z,13.67
2023-01-28T18:20:16.700Z,13.62
2023-01-28T18:23:19.254Z,13.62
2023-01-28T18:26:22.193Z,12.15
2023-01-28T18:29:26.140Z,12.02
2023-01-28T18:32:28.370Z,12.73
2023-01-28T18:35:30.784Z,12.75
2023-01-28T18:38:33.325Z,14.87
2023-01-28T18:41:35.742Z,11.63
2023-01-28T18:44:37.899Z,13.52
2023-01-28T18:47:41.364Z,14.95
2023-01-28T18:50:53.213Z,13.35
2023-01-28T18:53:57.869Z,12.32
2023-01-28T18:57:00.073Z,13.60
2023-01-28T19:00:03.225Z,12.30
2023-01-28T19:03:05.942Z,13.63
2023-01-28T19:06:10.439Z,13.57
2023-01-28T19:09:14.316Z,11.55
2023-01-28T19:12:16.753Z,12.68
2023-01-28T19:15:18.966Z,11.70
2023-01-28T19:18:21.886Z,11.83
2023-01-28T19:21:25.286Z,11.88
2023-01-28T19:27:29.985Z,14.27
2023-01-28T19:30:34.775Z,11.05
2023-01-28T19:33:36.971Z,14.85
2023-01-28T19:36:40.003Z,12.73
2023-01-28T19:39:42.356Z,13.43
2023-01-28T19:42:45.795Z,11.05
2023-01-28T19:46:03.574Z,9.75
2023-01-28T19:49:06.418Z,12.40
2023-01-28T19:52:10.853Z,10.33
2023-01-28T19:55:14.162Z,13.05
2023-01-28T19:58:17.784Z,12.68
2023-01-28T20:01:23.999Z,12.75
2023-01-28T20:04:26.428Z,11.48
2023-01-28T20:07:28.577Z,12.77
2023-01-28T20:10:32.147Z,13.18
2023-01-28T20:13:35.427Z,13.13
2023-01-28T20:19:39.984Z,13.98
2023-01-28T20:22:42.464Z,12.67
2023-01-28T20:25:51.094Z,12.93
2023-01-28T20:28:53.846Z,13.93
2023-01-28T20:32:14.844Z,12.20
2023-01-28T20:35:18.697Z,11.82
2023-01-28T20:38:20.944Z,14.25
2023-01-28T20:41:25.408Z,13.45
2023-01-28T20:44:31.860Z,13.15
2023-01-28T20:47:34.330Z,12.95
2023-01-28T20:50:36.522Z,13.85
2023-01-28T20:53:40.033Z,14.38
2023-01-28T20:56:42.343Z,14.27
2023-01-28T20:59:44.754Z,14.73
2023-01-28T21:02:46.952Z,12.75
2023-01-28T21:05:50.054Z,14.90
2023-01-28T21:08:53.114Z,12.88
2023-01-28T21:11:55.973Z,13.88
2023-01-28T21:14:58.159Z,15.30
2023-01-28T21:18:01.694Z,13.25
2023-01-28T21:21:10.520Z,14.85
2023-01-28T21:24:13.185Z,13.68
2023-01-28T21:27:15.332Z,13.52
2023-01-28T21:30:19.666Z,14.63
2023-01-28T21:33:21.798Z,11.50
2023-01-28T21:36:25.466Z,13.23
2023-01-28T21:39:27.750Z,14.45
2023-01-28T21:42:30.184Z,11.70
2023-01-28T21:45:32.364Z,13.32
2023-01-28T21:48:34.842Z,14.60
2023-01-28T21:51:39.853Z,13.95
2023-01-28T21:54:42.296Z,12.88
2023-01-28T21:57:44.494Z,14.85
2023-01-28T22:00:46.991Z,14.00
2023-01-28T22:03:49.504Z,13.38
2023-01-28T22:06:53.684Z,13.10
2023-01-28T22:09:56.149Z,13.07
2023-01-28T22:12:58.276Z,12.95
2023-01-28T22:16:01.053Z,12.68
2023-01-28T22:19:03.825Z,12.75
2023-01-28T22:22:06.889Z,13.77
2023-01-28T22:25:09.599Z,12.63
2023-01-28T22:28:12.090Z,14.10
2023-01-28T22:31:16.542Z,15.13
2023-01-28T22:34:20.418Z,13.50
2023-01-28T22:37:22.867Z,14.30
2023-01-28T22:40:25.331Z,13.20
2023-01-28T22:43:27.539Z,13.50
2023-01-28T22:46:32.759Z,15.82
2023-01-28T22:49:35.393Z,13.93
2023-01-28T22:52:38.035Z,11.40
2023-01-28T22:55:40.193Z,14.87
2023-01-28T22:58:42.990Z,13.18
2023-01-28T23:01:45.192Z,13.35
2023-01-28T23:04:47.819Z,12.98
2023-01-28T23:07:49.971Z,11.18
2023-01-28T23:10:52.498Z,11.55
2023-01-28T23:14:16.414Z,14.98
2023-01-28T23:17:37.184Z,12.45
2023-01-28T23:20:58.921Z,13.65
2023-01-28T23:24:19.544Z,13.77
2023-01-28T23:27:21.708Z,12.73
2023-01-28T23:30:26.813Z,12.18
2023-01-28T23:33:29.185Z,12.07
2023-01-28T23:36:31.714Z,11.13
2023-01-28T23:39:34.631Z,13.73
2023-01-28T23:42:37.279Z,12.93
2023-01-28T23:45:39.469Z,13.60
2023-01-28T23:48:42.302Z,11.43
2023-01-28T23:51:44.677Z,14.98
2023-01-28T23:54:47.136Z,13.37
2023-01-28T23:57:49.298Z,14.95
